sensor_id;sensor_type;location;lat;lon;timestamp;P1;P2;P0
72307;PMS5003;60257;42.638;23.376;2023-01-16T00:00:56;72.00;51.25;26.00
72307;PMS5003;60257;42.638;23.376;2023-01-16T00:03:23;72.25;56.00;35.00
72307;PMS5003;60257;42.638;23.376;2023-01-16T00:05:48;81.00;63.50;38.25
72307;PMS5003;60257;42.638;23.376;2023-01-16T00:08:14;88.50;67.25;39.75
72307;PMS5003;60257;42.638;23.376;2023-01-16T00:10:40;85.25;66.50;40.50
72307;PMS5003;60257;42.638;23.376;2023-01-16T00:13:06;82.75;63.50;40.50
72307;PMS5003;60257;42.638;23.376;2023-01-16T00:15:32;77.75;62.25;39.25
72307;PMS5003;60257;42.638;23.376;2023-01-16T00:17:58;90.75;68.25;42.50
72307;PMS5003;60257;42.638;23.376;2023-01-16T00:20:24;77.25;63.25;39.75
72307;PMS5003;60257;42.638;23.376;2023-01-16T00:22:49;80.75;65.75;40.75
72307;PMS5003;60257;42.638;23.376;2023-01-16T00:25:14;87.75;69.00;42.50
72307;PMS5003;60257;42.638;23.376;2023-01-16T00:27:40;82.25;63.25;39.50
72307;PMS5003;60257;42.638;23.376;2023-01-16T00:30:06;90.75;69.25;43.25
72307;PMS5003;60257;42.638;23.376;2023-01-16T00:32:32;78.00;64.75;39.00
72307;PMS5003;60257;42.638;23.376;2023-01-16T00:34:59;90.75;69.00;41.50
72307;PMS5003;60257;42.638;23.376;2023-01-16T00:37:24;75.75;62.00;37.50
72307;PMS5003;60257;42.638;23.376;2023-01-16T00:39:50;84.75;64.00;40.50
72307;PMS5003;60257;42.638;23.376;2023-01-16T00:42:18;80.75;65.50;41.00
72307;PMS5003;60257;42.638;23.376;2023-01-16T00:44:44;83.00;66.75;40.25
72307;PMS5003;60257;42.638;23.376;2023-01-16T00:47:09;80.25;63.75;40.75
72307;PMS5003;60257;42.638;23.376;2023-01-16T00:49:35;83.50;64.50;39.00
72307;PMS5003;60257;42.638;23.376;2023-01-16T00:52:00;83.50;67.75;42.75
72307;PMS5003;60257;42.638;23.376;2023-01-16T00:54:26;86.75;67.75;41.00
72307;PMS5003;60257;42.638;23.376;2023-01-16T00:56:52;80.00;63.75;38.75
72307;PMS5003;60257;42.638;23.376;2023-01-16T00:59:17;73.75;58.75;37.00
72307;PMS5003;60257;42.638;23.376;2023-01-16T01:01:43;79.75;63.50;37.00
72307;PMS5003;60257;42.638;23.376;2023-01-16T01:04:08;74.50;60.75;38.75
72307;PMS5003;60257;42.638;23.376;2023-01-16T01:06:34;74.00;59.00;30.75
72307;PMS5003;60257;42.638;23.376;2023-01-16T01:08:59;76.25;59.00;38.00
72307;PMS5003;60257;42.638;23.376;2023-01-16T01:11:25;73.00;59.50;38.50
72307;PMS5003;60257;42.638;23.376;2023-01-16T01:13:50;79.00;62.00;34.00
72307;PMS5003;60257;42.638;23.376;2023-01-16T01:16:16;84.25;65.00;39.00
72307;PMS5003;60257;42.638;23.376;2023-01-16T01:18:42;80.00;62.00;37.25
72307;PMS5003;60257;42.638;23.376;2023-01-16T01:21:08;72.00;55.25;33.75
72307;PMS5003;60257;42.638;23.376;2023-01-16T01:23:33;79.00;62.75;37.75
72307;PMS5003;60257;42.638;23.376;2023-01-16T01:26:09;73.25;61.75;36.50
72307;PMS5003;60257;42.638;23.376;2023-01-16T01:28:37;72.00;56.25;33.75
72307;PMS5003;60257;42.638;23.376;2023-01-16T01:31:06;73.00;58.75;38.50
72307;PMS5003;60257;42.638;23.376;2023-01-16T01:33:33;78.50;58.00;33.25
72307;PMS5003;60257;42.638;23.376;2023-01-16T01:35:59;69.75;55.75;31.00
72307;PMS5003;60257;42.638;23.376;2023-01-16T01:38:25;76.50;61.50;34.50
72307;PMS5003;60257;42.638;23.376;2023-01-16T01:40:50;73.50;56.25;31.50
72307;PMS5003;60257;42.638;23.376;2023-01-16T01:43:16;73.25;57.25;33.25
72307;PMS5003;60257;42.638;23.376;2023-01-16T01:45:42;73.00;57.75;36.00
72307;PMS5003;60257;42.638;23.376;2023-01-16T01:53:15;66.00;54.50;33.75
72307;PMS5003;60257;42.638;23.376;2023-01-16T01:55:45;71.25;56.00;33.25
72307;PMS5003;60257;42.638;23.376;2023-01-16T01:58:13;51.00;41.00;19.00
72307;PMS5003;60257;42.638;23.376;2023-01-16T02:00:45;64.00;50.50;29.25
72307;PMS5003;60257;42.638;23.376;2023-01-16T02:03:15;67.00;53.50;34.00
72307;PMS5003;60257;42.638;23.376;2023-01-16T02:05:50;66.75;52.50;33.25
72307;PMS5003;60257;42.638;23.376;2023-01-16T02:08:19;74.50;62.00;36.25
72307;PMS5003;60257;42.638;23.376;2023-01-16T02:10:56;64.50;52.00;33.50
72307;PMS5003;60257;42.638;23.376;2023-01-16T02:13:28;60.00;48.75;26.00
72307;PMS5003;60257;42.638;23.376;2023-01-16T02:15:55;55.50;48.75;32.50
72307;PMS5003;60257;42.638;23.376;2023-01-16T02:18:39;56.00;46.25;27.00
72307;PMS5003;60257;42.638;23.376;2023-01-16T02:37:55;53.00;45.75;32.00
72307;PMS5003;60257;42.638;23.376;2023-01-16T02:43:10;57.00;47.25;29.25
72307;PMS5003;60257;42.638;23.376;2023-01-16T02:45:52;42.75;38.50;14.50
72307;PMS5003;60257;42.638;23.376;2023-01-16T02:51:30;69.75;56.50;36.00
72307;PMS5003;60257;42.638;23.376;2023-01-16T02:54:22;61.00;51.00;33.00
72307;PMS5003;60257;42.638;23.376;2023-01-16T02:56:55;70.00;57.25;35.50
72307;PMS5003;60257;42.638;23.376;2023-01-16T02:59:27;68.00;53.25;33.00
72307;PMS5003;60257;42.638;23.376;2023-01-16T03:01:55;73.00;60.00;34.50
72307;PMS5003;60257;42.638;23.376;2023-01-16T03:04:41;68.00;54.00;31.25
72307;PMS5003;60257;42.638;23.376;2023-01-16T03:10:18;70.75;54.00;30.75
72307;PMS5003;60257;42.638;23.376;2023-01-16T03:23:52;65.25;49.50;29.50
72307;PMS5003;60257;42.638;23.376;2023-01-16T03:26:27;60.50;53.75;33.00
72307;PMS5003;60257;42.638;23.376;2023-01-16T03:37:28;72.25;57.50;33.25
72307;PMS5003;60257;42.638;23.376;2023-01-16T03:40:01;77.50;57.50;33.00
72307;PMS5003;60257;42.638;23.376;2023-01-16T03:42:32;66.50;50.50;30.00
72307;PMS5003;60257;42.638;23.376;2023-01-16T03:45:08;70.00;58.00;33.75
72307;PMS5003;60257;42.638;23.376;2023-01-16T03:47:49;63.50;51.75;31.00
72307;PMS5003;60257;42.638;23.376;2023-01-16T03:50:21;70.00;56.50;38.00
72307;PMS5003;60257;42.638;23.376;2023-01-16T03:52:51;75.00;59.00;36.00
72307;PMS5003;60257;42.638;23.376;2023-01-16T03:55:42;70.25;57.00;33.00
72307;PMS5003;60257;42.638;23.376;2023-01-16T03:58:24;73.00;58.75;33.50
72307;PMS5003;60257;42.638;23.376;2023-01-16T04:01:21;73.00;56.25;34.00
72307;PMS5003;60257;42.638;23.376;2023-01-16T04:04:01;57.50;46.50;25.50
72307;PMS5003;60257;42.638;23.376;2023-01-16T04:06:41;64.50;53.00;30.00
72307;PMS5003;60257;42.638;23.376;2023-01-16T04:09:14;69.25;54.00;32.25
72307;PMS5003;60257;42.638;23.376;2023-01-16T04:11:46;62.25;50.50;31.75
72307;PMS5003;60257;42.638;23.376;2023-01-16T04:14:15;58.00;52.00;34.50
72307;PMS5003;60257;42.638;23.376;2023-01-16T04:16:44;70.25;55.50;34.00
72307;PMS5003;60257;42.638;23.376;2023-01-16T04:19:11;75.00;57.75;34.00
72307;PMS5003;60257;42.638;23.376;2023-01-16T04:21:41;62.75;52.00;30.75
72307;PMS5003;60257;42.638;23.376;2023-01-16T04:24:09;67.00;53.50;34.75
72307;PMS5003;60257;42.638;23.376;2023-01-16T04:26:34;77.25;59.50;36.00
72307;PMS5003;60257;42.638;23.376;2023-01-16T04:28:59;73.25;54.75;34.00
72307;PMS5003;60257;42.638;23.376;2023-01-16T04:31:25;61.75;51.25;28.25
72307;PMS5003;60257;42.638;23.376;2023-01-16T04:33:52;69.50;58.00;36.00
72307;PMS5003;60257;42.638;23.376;2023-01-16T04:36:18;69.00;53.50;33.50
72307;PMS5003;60257;42.638;23.376;2023-01-16T04:38:43;61.50;49.00;26.00
72307;PMS5003;60257;42.638;23.376;2023-01-16T04:41:09;72.25;56.00;31.50
72307;PMS5003;60257;42.638;23.376;2023-01-16T04:43:34;67.25;55.50;30.75
72307;PMS5003;60257;42.638;23.376;2023-01-16T04:45:59;68.50;58.25;36.00
72307;PMS5003;60257;42.638;23.376;2023-01-16T04:48:25;78.50;63.25;39.25
72307;PMS5003;60257;42.638;23.376;2023-01-16T04:50:50;75.25;60.75;36.00
72307;PMS5003;60257;42.638;23.376;2023-01-16T04:53:16;72.25;59.00;34.25
72307;PMS5003;60257;42.638;23.376;2023-01-16T04:55:41;73.25;59.50;36.00
72307;PMS5003;60257;42.638;23.376;2023-01-16T04:58:07;74.00;57.50;38.50
72307;PMS5003;60257;42.638;23.376;2023-01-16T05:00:32;77.50;60.00;36.00
72307;PMS5003;60257;42.638;23.376;2023-01-16T05:02:58;78.25;60.25;36.25
72307;PMS5003;60257;42.638;23.376;2023-01-16T05:05:24;102.50;72.00;42.00
72307;PMS5003;60257;42.638;23.376;2023-01-16T05:07:49;77.50;59.50;34.00
72307;PMS5003;60257;42.638;23.376;2023-01-16T05:10:35;68.25;54.00;34.50
72307;PMS5003;60257;42.638;23.376;2023-01-16T05:13:00;87.25;63.75;38.00
72307;PMS5003;60257;42.638;23.376;2023-01-16T05:15:26;78.75;60.75;36.00
72307;PMS5003;60257;42.638;23.376;2023-01-16T05:17:51;68.25;54.75;34.50
72307;PMS5003;60257;42.638;23.376;2023-01-16T05:20:18;80.50;65.00;38.50
72307;PMS5003;60257;42.638;23.376;2023-01-16T05:22:43;80.00;62.50;36.00
72307;PMS5003;60257;42.638;23.376;2023-01-16T05:25:08;67.50;56.50;30.75
72307;PMS5003;60257;42.638;23.376;2023-01-16T05:27:34;74.50;57.25;33.00
72307;PMS5003;60257;42.638;23.376;2023-01-16T05:29:59;79.50;61.00;37.00
72307;PMS5003;60257;42.638;23.376;2023-01-16T05:32:25;79.50;63.50;37.00
72307;PMS5003;60257;42.638;23.376;2023-01-16T05:34:50;74.75;59.75;36.75
72307;PMS5003;60257;42.638;23.376;2023-01-16T05:37:16;77.00;61.00;39.00
72307;PMS5003;60257;42.638;23.376;2023-01-16T05:39:41;81.00;63.00;37.00
72307;PMS5003;60257;42.638;23.376;2023-01-16T05:42:06;94.00;70.50;44.50
72307;PMS5003;60257;42.638;23.376;2023-01-16T05:44:46;70.00;57.25;35.00
72307;PMS5003;60257;42.638;23.376;2023-01-16T05:47:13;71.00;56.00;33.25
72307;PMS5003;60257;42.638;23.376;2023-01-16T05:49:38;77.00;60.25;37.00
72307;PMS5003;60257;42.638;23.376;2023-01-16T05:52:04;83.25;62.00;36.00
72307;PMS5003;60257;42.638;23.376;2023-01-16T05:54:29;74.75;55.75;31.50
72307;PMS5003;60257;42.638;23.376;2023-01-16T05:56:54;78.00;61.75;36.25
72307;PMS5003;60257;42.638;23.376;2023-01-16T05:59:20;77.50;60.50;36.50
72307;PMS5003;60257;42.638;23.376;2023-01-16T06:01:46;77.00;57.75;39.00
72307;PMS5003;60257;42.638;23.376;2023-01-16T06:04:11;82.25;61.75;36.00
72307;PMS5003;60257;42.638;23.376;2023-01-16T06:06:36;79.00;61.50;40.50
72307;PMS5003;60257;42.638;23.376;2023-01-16T06:09:02;79.25;62.75;42.00
72307;PMS5003;60257;42.638;23.376;2023-01-16T06:11:27;72.00;59.75;36.25
72307;PMS5003;60257;42.638;23.376;2023-01-16T06:13:53;82.75;67.25;40.00
72307;PMS5003;60257;42.638;23.376;2023-01-16T06:16:18;91.50;66.25;40.00
72307;PMS5003;60257;42.638;23.376;2023-01-16T06:18:44;75.50;60.50;35.50
72307;PMS5003;60257;42.638;23.376;2023-01-16T06:21:09;85.50;64.75;40.50
72307;PMS5003;60257;42.638;23.376;2023-01-16T06:23:35;72.25;59.00;33.25
72307;PMS5003;60257;42.638;23.376;2023-01-16T06:26:00;82.75;64.00;38.75
72307;PMS5003;60257;42.638;23.376;2023-01-16T06:28:27;76.00;60.25;36.00
72307;PMS5003;60257;42.638;23.376;2023-01-16T06:30:53;85.00;66.75;43.75
72307;PMS5003;60257;42.638;23.376;2023-01-16T06:33:18;78.00;62.00;39.00
72307;PMS5003;60257;42.638;23.376;2023-01-16T06:35:44;77.00;61.00;36.00
72307;PMS5003;60257;42.638;23.376;2023-01-16T06:38:10;79.25;58.00;28.00
72307;PMS5003;60257;42.638;23.376;2023-01-16T06:40:35;70.25;56.50;33.50
72307;PMS5003;60257;42.638;23.376;2023-01-16T06:43:00;81.25;61.75;38.25
72307;PMS5003;60257;42.638;23.376;2023-01-16T06:45:26;70.75;53.25;32.25
72307;PMS5003;60257;42.638;23.376;2023-01-16T06:47:52;81.50;63.75;39.50
72307;PMS5003;60257;42.638;23.376;2023-01-16T06:50:18;73.00;57.50;35.25
72307;PMS5003;60257;42.638;23.376;2023-01-16T06:52:44;74.00;56.50;32.50
72307;PMS5003;60257;42.638;23.376;2023-01-16T06:55:09;67.00;54.25;34.00
72307;PMS5003;60257;42.638;23.376;2023-01-16T06:57:38;72.00;58.25;33.25
72307;PMS5003;60257;42.638;23.376;2023-01-16T07:00:03;70.25;57.25;34.00
72307;PMS5003;60257;42.638;23.376;2023-01-16T07:02:29;76.00;59.25;34.00
72307;PMS5003;60257;42.638;23.376;2023-01-16T07:04:54;83.50;63.25;35.50
72307;PMS5003;60257;42.638;23.376;2023-01-16T07:07:20;78.75;62.00;34.50
72307;PMS5003;60257;42.638;23.376;2023-01-16T07:09:46;75.50;63.50;40.00
72307;PMS5003;60257;42.638;23.376;2023-01-16T07:12:11;70.75;52.75;30.00
72307;PMS5003;60257;42.638;23.376;2023-01-16T07:14:37;74.50;62.25;37.75
72307;PMS5003;60257;42.638;23.376;2023-01-16T07:17:21;73.75;58.25;29.00
72307;PMS5003;60257;42.638;23.376;2023-01-16T07:20:05;90.25;65.00;40.75
72307;PMS5003;60257;42.638;23.376;2023-01-16T07:22:49;80.50;63.50;38.00
72307;PMS5003;60257;42.638;23.376;2023-01-16T07:25:16;74.25;59.75;39.00
72307;PMS5003;60257;42.638;23.376;2023-01-16T07:27:46;83.75;64.50;39.00
72307;PMS5003;60257;42.638;23.376;2023-01-16T07:30:18;66.00;52.25;31.50
72307;PMS5003;60257;42.638;23.376;2023-01-16T07:32:46;73.75;58.25;34.50
72307;PMS5003;60257;42.638;23.376;2023-01-16T07:35:12;76.75;60.75;34.25
72307;PMS5003;60257;42.638;23.376;2023-01-16T07:37:38;70.25;55.00;31.00
72307;PMS5003;60257;42.638;23.376;2023-01-16T07:40:04;72.00;57.00;33.50
72307;PMS5003;60257;42.638;23.376;2023-01-16T07:42:30;70.75;56.00;34.25
72307;PMS5003;60257;42.638;23.376;2023-01-16T07:44:56;73.25;57.50;34.00
72307;PMS5003;60257;42.638;23.376;2023-01-16T07:47:21;71.00;56.75;33.50
72307;PMS5003;60257;42.638;23.376;2023-01-16T07:49:47;74.25;59.25;33.75
72307;PMS5003;60257;42.638;23.376;2023-01-16T07:52:12;70.75;54.75;33.50
72307;PMS5003;60257;42.638;23.376;2023-01-16T07:54:38;82.75;62.25;36.00
72307;PMS5003;60257;42.638;23.376;2023-01-16T07:57:05;74.00;57.75;36.50
72307;PMS5003;60257;42.638;23.376;2023-01-16T07:59:31;76.00;58.25;33.50
72307;PMS5003;60257;42.638;23.376;2023-01-16T08:01:56;84.00;65.50;40.00
72307;PMS5003;60257;42.638;23.376;2023-01-16T08:04:22;89.50;64.25;37.50
72307;PMS5003;60257;42.638;23.376;2023-01-16T08:06:47;71.75;59.00;33.00
72307;PMS5003;60257;42.638;23.376;2023-01-16T08:09:13;80.75;63.50;40.00
72307;PMS5003;60257;42.638;23.376;2023-01-16T08:11:38;74.75;59.00;32.25
72307;PMS5003;60257;42.638;23.376;2023-01-16T08:14:05;57.75;49.00;30.25
72307;PMS5003;60257;42.638;23.376;2023-01-16T08:16:32;71.50;55.25;31.00
72307;PMS5003;60257;42.638;23.376;2023-01-16T08:18:58;76.25;61.25;34.75
72307;PMS5003;60257;42.638;23.376;2023-01-16T08:21:23;81.00;62.25;37.75
72307;PMS5003;60257;42.638;23.376;2023-01-16T08:23:49;75.25;58.75;37.25
72307;PMS5003;60257;42.638;23.376;2023-01-16T08:26:15;73.00;59.00;37.25
72307;PMS5003;60257;42.638;23.376;2023-01-16T08:28:40;76.50;61.00;34.25
72307;PMS5003;60257;42.638;23.376;2023-01-16T08:31:06;69.50;55.25;34.25
72307;PMS5003;60257;42.638;23.376;2023-01-16T08:33:38;86.00;66.25;38.50
72307;PMS5003;60257;42.638;23.376;2023-01-16T08:36:06;86.75;65.25;36.25
72307;PMS5003;60257;42.638;23.376;2023-01-16T08:38:33;82.00;64.00;38.50
72307;PMS5003;60257;42.638;23.376;2023-01-16T08:40:59;81.75;63.25;35.75
72307;PMS5003;60257;42.638;23.376;2023-01-16T08:43:25;80.00;65.00;40.00
72307;PMS5003;60257;42.638;23.376;2023-01-16T08:46:27;87.50;68.00;39.75
72307;PMS5003;60257;42.638;23.376;2023-01-16T08:49:13;85.50;62.50;39.25
72307;PMS5003;60257;42.638;23.376;2023-01-16T08:51:58;79.75;62.00;38.50
72307;PMS5003;60257;42.638;23.376;2023-01-16T08:54:24;76.50;61.00;33.25
72307;PMS5003;60257;42.638;23.376;2023-01-16T08:56:49;80.50;61.50;33.00
72307;PMS5003;60257;42.638;23.376;2023-01-16T08:59:15;78.50;62.25;37.00
72307;PMS5003;60257;42.638;23.376;2023-01-16T09:01:41;66.25;55.50;32.75
72307;PMS5003;60257;42.638;23.376;2023-01-16T09:04:07;82.75;62.25;37.50
72307;PMS5003;60257;42.638;23.376;2023-01-16T09:06:33;83.25;65.00;38.50
72307;PMS5003;60257;42.638;23.376;2023-01-16T09:09:02;89.25;66.00;38.25
72307;PMS5003;60257;42.638;23.376;2023-01-16T09:11:28;82.25;66.00;40.25
72307;PMS5003;60257;42.638;23.376;2023-01-16T09:14:12;83.00;65.25;40.25
72307;PMS5003;60257;42.638;23.376;2023-01-16T09:16:37;102.00;79.75;48.00
72307;PMS5003;60257;42.638;23.376;2023-01-16T09:19:03;78.00;60.00;33.00
72307;PMS5003;60257;42.638;23.376;2023-01-16T09:21:28;90.00;68.75;41.00
72307;PMS5003;60257;42.638;23.376;2023-01-16T09:23:54;83.00;62.50;37.75
72307;PMS5003;60257;42.638;23.376;2023-01-16T09:26:19;76.00;58.50;29.25
72307;PMS5003;60257;42.638;23.376;2023-01-16T09:28:45;89.00;67.50;40.00
72307;PMS5003;60257;42.638;23.376;2023-01-16T09:31:10;91.75;70.25;43.00
72307;PMS5003;60257;42.638;23.376;2023-01-16T09:33:35;93.75;70.50;41.75
72307;PMS5003;60257;42.638;23.376;2023-01-16T09:36:02;89.50;68.50;43.50
72307;PMS5003;60257;42.638;23.376;2023-01-16T09:38:28;86.50;66.00;41.75
72307;PMS5003;60257;42.638;23.376;2023-01-16T09:40:55;82.50;64.25;39.00
72307;PMS5003;60257;42.638;23.376;2023-01-16T09:51:31;84.25;65.25;39.25
72307;PMS5003;60257;42.638;23.376;2023-01-16T09:56:52;79.00;64.00;39.00
72307;PMS5003;60257;42.638;23.376;2023-01-16T10:02:25;85.75;66.25;39.25
72307;PMS5003;60257;42.638;23.376;2023-01-16T10:04:58;83.25;67.25;40.75
72307;PMS5003;60257;42.638;23.376;2023-01-16T10:24:19;83.75;65.25;39.25
72307;PMS5003;60257;42.638;23.376;2023-01-16T10:26:58;71.75;60.75;39.00
72307;PMS5003;60257;42.638;23.376;2023-01-16T10:29:41;67.75;54.50;32.25
72307;PMS5003;60257;42.638;23.376;2023-01-16T10:32:12;72.25;56.75;36.75
72307;PMS5003;60257;42.638;23.376;2023-01-16T10:37:36;77.25;62.00;38.00
72307;PMS5003;60257;42.638;23.376;2023-01-16T10:40:16;75.50;60.50;37.25
72307;PMS5003;60257;42.638;23.376;2023-01-16T10:42:48;74.75;60.00;36.50
72307;PMS5003;60257;42.638;23.376;2023-01-16T10:45:38;77.00;61.00;37.00
72307;PMS5003;60257;42.638;23.376;2023-01-16T10:48:23;81.25;59.25;36.75
72307;PMS5003;60257;42.638;23.376;2023-01-16T10:51:10;82.25;64.75;37.00
72307;PMS5003;60257;42.638;23.376;2023-01-16T10:53:36;76.50;61.00;36.50
72307;PMS5003;60257;42.638;23.376;2023-01-16T10:56:03;82.50;62.00;38.00
72307;PMS5003;60257;42.638;23.376;2023-01-16T11:03:41;80.75;62.75;36.50
72307;PMS5003;60257;42.638;23.376;2023-01-16T11:06:12;78.50;60.25;36.25
72307;PMS5003;60257;42.638;23.376;2023-01-16T11:08:47;82.75;63.75;39.50
72307;PMS5003;60257;42.638;23.376;2023-01-16T11:11:14;75.75;62.50;38.50
72307;PMS5003;60257;42.638;23.376;2023-01-16T11:13:59;84.50;65.00;39.00
72307;PMS5003;60257;42.638;23.376;2023-01-16T11:16:50;87.00;67.00;38.25
72307;PMS5003;60257;42.638;23.376;2023-01-16T11:19:39;87.75;66.00;41.00
72307;PMS5003;60257;42.638;23.376;2023-01-16T11:22:24;70.00;53.50;37.50
72307;PMS5003;60257;42.638;23.376;2023-01-16T11:24:58;69.25;58.00;37.00
72307;PMS5003;60257;42.638;23.376;2023-01-16T11:27:26;73.50;57.50;36.25
72307;PMS5003;60257;42.638;23.376;2023-01-16T11:29:55;67.25;54.75;32.00
72307;PMS5003;60257;42.638;23.376;2023-01-16T11:32:22;80.75;64.50;38.25
72307;PMS5003;60257;42.638;23.376;2023-01-16T11:34:53;78.00;60.75;38.50
72307;PMS5003;60257;42.638;23.376;2023-01-16T11:37:21;75.25;59.50;35.75
72307;PMS5003;60257;42.638;23.376;2023-01-16T11:39:48;83.00;62.75;36.50
72307;PMS5003;60257;42.638;23.376;2023-01-16T11:42:16;75.25;58.25;36.25
72307;PMS5003;60257;42.638;23.376;2023-01-16T11:45:04;71.00;57.75;37.50
72307;PMS5003;60257;42.638;23.376;2023-01-16T11:47:58;80.25;62.50;39.00
72307;PMS5003;60257;42.638;23.376;2023-01-16T11:50:28;74.50;59.75;36.25
72307;PMS5003;60257;42.638;23.376;2023-01-16T11:52:56;81.50;62.00;38.25
72307;PMS5003;60257;42.638;23.376;2023-01-16T11:55:23;80.50;62.25;40.25
72307;PMS5003;60257;42.638;23.376;2023-01-16T11:58:13;81.00;64.50;39.00
72307;PMS5003;60257;42.638;23.376;2023-01-16T12:08:59;73.25;58.50;36.25
72307;PMS5003;60257;42.638;23.376;2023-01-16T12:16:50;65.25;52.75;32.00
72307;PMS5003;60257;42.638;23.376;2023-01-16T12:32:48;64.00;52.00;30.50
72307;PMS5003;60257;42.638;23.376;2023-01-16T12:35:49;62.75;51.50;31.00
72307;PMS5003;60257;42.638;23.376;2023-01-16T12:38:42;64.25;53.75;33.00
72307;PMS5003;60257;42.638;23.376;2023-01-16T12:41:23;59.50;47.75;27.00
72307;PMS5003;60257;42.638;23.376;2023-01-16T12:49:33;66.50;54.00;29.75
72307;PMS5003;60257;42.638;23.376;2023-01-16T13:00:14;66.25;54.25;33.00
72307;PMS5003;60257;42.638;23.376;2023-01-16T13:02:51;65.25;54.50;30.00
72307;PMS5003;60257;42.638;23.376;2023-01-16T13:05:27;70.25;54.50;31.00
72307;PMS5003;60257;42.638;23.376;2023-01-16T13:07:59;66.50;54.75;32.00
72307;PMS5003;60257;42.638;23.376;2023-01-16T13:10:35;68.00;54.75;34.50
72307;PMS5003;60257;42.638;23.376;2023-01-16T13:13:23;60.75;48.25;26.00
72307;PMS5003;60257;42.638;23.376;2023-01-16T13:15:59;60.50;47.50;28.25
72307;PMS5003;60257;42.638;23.376;2023-01-16T13:21:21;54.25;45.25;28.00
72307;PMS5003;60257;42.638;23.376;2023-01-16T13:23:55;60.25;49.00;28.00
72307;PMS5003;60257;42.638;23.376;2023-01-16T13:26:21;62.00;49.00;29.00
72307;PMS5003;60257;42.638;23.376;2023-01-16T13:31:51;63.25;48.50;31.00
72307;PMS5003;60257;42.638;23.376;2023-01-16T13:37:08;59.25;47.75;30.00
72307;PMS5003;60257;42.638;23.376;2023-01-16T13:39:55;66.50;53.25;30.25
72307;PMS5003;60257;42.638;23.376;2023-01-16T13:42:34;61.00;50.00;29.75
72307;PMS5003;60257;42.638;23.376;2023-01-16T13:45:09;65.00;51.75;30.50
72307;PMS5003;60257;42.638;23.376;2023-01-16T13:48:01;57.25;45.75;28.00
72307;PMS5003;60257;42.638;23.376;2023-01-16T13:50:28;56.00;47.00;28.00
72307;PMS5003;60257;42.638;23.376;2023-01-16T13:53:07;54.50;43.25;28.00
72307;PMS5003;60257;42.638;23.376;2023-01-16T13:55:35;53.75;46.00;25.25
72307;PMS5003;60257;42.638;23.376;2023-01-16T14:00:40;52.25;44.00;26.25
72307;PMS5003;60257;42.638;23.376;2023-01-16T14:05:51;62.25;46.50;25.25
72307;PMS5003;60257;42.638;23.376;2023-01-16T14:11:34;56.00;49.00;29.00
72307;PMS5003;60257;42.638;23.376;2023-01-16T14:14:21;53.50;44.75;26.50
72307;PMS5003;60257;42.638;23.376;2023-01-16T14:17:29;54.00;44.25;25.50
72307;PMS5003;60257;42.638;23.376;2023-01-16T14:20:33;48.25;40.75;26.00
72307;PMS5003;60257;42.638;23.376;2023-01-16T14:23:25;41.75;37.50;19.50
72307;PMS5003;60257;42.638;23.376;2023-01-16T14:26:35;59.00;47.75;28.75
72307;PMS5003;60257;42.638;23.376;2023-01-16T14:28:59;53.75;44.00;26.25
72307;PMS5003;60257;42.638;23.376;2023-01-16T14:31:29;54.25;45.25;26.25
72307;PMS5003;60257;42.638;23.376;2023-01-16T14:34:03;40.25;39.25;26.00
72307;PMS5003;60257;42.638;23.376;2023-01-16T14:36:29;57.75;46.00;27.25
72307;PMS5003;60257;42.638;23.376;2023-01-16T14:38:59;53.50;43.25;25.25
72307;PMS5003;60257;42.638;23.376;2023-01-16T14:41:27;45.00;40.50;24.00
72307;PMS5003;60257;42.638;23.376;2023-01-16T14:44:15;48.75;40.75;24.50
72307;PMS5003;60257;42.638;23.376;2023-01-16T14:47:08;46.50;42.50;23.00
72307;PMS5003;60257;42.638;23.376;2023-01-16T14:55:23;35.25;33.25;14.00
72307;PMS5003;60257;42.638;23.376;2023-01-16T14:57:50;36.25;32.75;17.50
72307;PMS5003;60257;42.638;23.376;2023-01-16T15:00:17;31.75;29.50;16.50
72307;PMS5003;60257;42.638;23.376;2023-01-16T15:02:58;53.00;43.50;26.25
72307;PMS5003;60257;42.638;23.376;2023-01-16T15:05:33;63.00;47.75;28.50
72307;PMS5003;60257;42.638;23.376;2023-01-16T15:10:53;34.75;28.00;10.50
72307;PMS5003;60257;42.638;23.376;2023-01-16T15:13:21;46.75;42.50;23.25
72307;PMS5003;60257;42.638;23.376;2023-01-16T15:15:49;48.75;42.00;25.75
72307;PMS5003;60257;42.638;23.376;2023-01-16T15:18:22;54.75;45.50;27.50
72307;PMS5003;60257;42.638;23.376;2023-01-16T15:21:16;59.50;47.50;26.00
72307;PMS5003;60257;42.638;23.376;2023-01-16T15:24:06;46.50;43.50;29.00
72307;PMS5003;60257;42.638;23.376;2023-01-16T15:29:48;60.75;48.75;30.00
72307;PMS5003;60257;42.638;23.376;2023-01-16T15:32:16;63.00;47.00;24.25
72307;PMS5003;60257;42.638;23.376;2023-01-16T15:34:45;60.25;47.25;28.75
72307;PMS5003;60257;42.638;23.376;2023-01-16T15:37:19;58.50;46.75;26.25
72307;PMS5003;60257;42.638;23.376;2023-01-16T15:39:47;52.00;42.25;26.00
72307;PMS5003;60257;42.638;23.376;2023-01-16T15:42:16;57.75;45.25;26.00
72307;PMS5003;60257;42.638;23.376;2023-01-16T15:48:09;54.50;43.00;29.75
72307;PMS5003;60257;42.638;23.376;2023-01-16T15:51:00;56.25;44.50;26.00
72307;PMS5003;60257;42.638;23.376;2023-01-16T15:53:37;58.00;45.50;27.50
72307;PMS5003;60257;42.638;23.376;2023-01-16T15:56:51;56.00;47.00;27.00
72307;PMS5003;60257;42.638;23.376;2023-01-16T15:59:03;54.50;46.25;27.00
72307;PMS5003;60257;42.638;23.376;2023-01-16T16:01:44;52.25;45.25;26.50
72307;PMS5003;60257;42.638;23.376;2023-01-16T16:04:09;57.00;47.50;29.25
72307;PMS5003;60257;42.638;23.376;2023-01-16T16:06:35;58.00;49.50;31.25
72307;PMS5003;60257;42.638;23.376;2023-01-16T16:09:03;65.50;51.75;29.75
72307;PMS5003;60257;42.638;23.376;2023-01-16T16:11:30;58.50;43.50;29.00
72307;PMS5003;60257;42.638;23.376;2023-01-16T16:14:23;60.00;50.00;29.75
72307;PMS5003;60257;42.638;23.376;2023-01-16T16:17:19;60.75;48.75;30.00
72307;PMS5003;60257;42.638;23.376;2023-01-16T16:25:51;48.75;42.50;23.50
72307;PMS5003;60257;42.638;23.376;2023-01-16T16:28:27;64.50;53.00;31.25
72307;PMS5003;60257;42.638;23.376;2023-01-16T16:31:14;58.00;44.50;27.25
72307;PMS5003;60257;42.638;23.376;2023-01-16T16:34:31;57.25;45.50;24.00
72307;PMS5003;60257;42.638;23.376;2023-01-16T16:36:42;75.00;58.50;34.00
72307;PMS5003;60257;42.638;23.376;2023-01-16T16:41:59;67.25;55.25;34.50
72307;PMS5003;60257;42.638;23.376;2023-01-16T16:45:03;70.75;56.75;31.00
72307;PMS5003;60257;42.638;23.376;2023-01-16T16:47:36;68.25;53.00;34.25